createdAt,value
2022-10-23T00:01:24.540Z,3.35
2022-10-23T00:03:53.376Z,3.28
2022-10-23T00:06:20.555Z,3.10
2022-10-23T00:08:48.044Z,2.58
2022-10-23T00:11:18.367Z,3.55
2022-10-23T00:13:45.469Z,2.78
2022-10-23T00:16:12.106Z,2.80
2022-10-23T00:18:39.710Z,3.03
2022-10-23T00:21:08.426Z,2.50
2022-10-23T00:23:35.047Z,2.90
2022-10-23T00:26:02.333Z,2.25
2022-10-23T00:28:28.765Z,2.60
2022-10-23T00:30:55.255Z,2.17
2022-10-23T00:33:21.731Z,2.05
2022-10-23T00:35:48.439Z,2.10
2022-10-23T00:38:14.865Z,2.45
2022-10-23T00:40:42.344Z,2.17
2022-10-23T00:43:18.498Z,2.22
2022-10-23T00:45:45.363Z,3.35
2022-10-23T00:48:12.152Z,2.15
2022-10-23T00:50:38.707Z,2.35
2022-10-23T00:53:06.801Z,2.75
2022-10-23T00:55:33.915Z,2.50
2022-10-23T00:58:01.674Z,2.22
2022-10-23T01:00:32.089Z,2.58
2022-10-23T01:02:58.639Z,2.67
2022-10-23T01:05:32.915Z,2.10
2022-10-23T01:08:09.328Z,2.33
2022-10-23T01:10:52.125Z,3.67
2022-10-23T01:13:26.870Z,2.67
2022-10-23T01:16:10.228Z,2.40
2022-10-23T01:18:42.799Z,3.05
2022-10-23T01:21:55.305Z,2.50
2022-10-23T01:24:29.350Z,3.05
2022-10-23T01:27:13.802Z,2.75
2022-10-23T01:29:49.047Z,3.30
2022-10-23T01:32:30.319Z,2.88
2022-10-23T01:35:07.431Z,2.95
2022-10-23T01:37:42.198Z,2.85
2022-10-23T01:40:15.105Z,2.72
2022-10-23T01:42:46.939Z,2.95
2022-10-23T01:45:23.913Z,3.60
2022-10-23T01:47:51.178Z,2.38
2022-10-23T01:50:19.669Z,2.25
2022-10-23T01:52:46.220Z,2.50
2022-10-23T01:55:14.437Z,2.47
2022-10-23T01:57:44.596Z,2.40
2022-10-23T02:00:15.032Z,2.25
2022-10-23T02:02:44.978Z,2.30
2022-10-23T02:05:22.323Z,2.45
2022-10-23T02:07:49.393Z,2.30
2022-10-23T02:10:16.090Z,2.40
2022-10-23T02:13:18.979Z,2.00
2022-10-23T02:15:55.054Z,2.17
2022-10-23T02:18:59.996Z,1.90
2022-10-23T02:21:38.972Z,1.92
2022-10-23T02:24:11.510Z,2.00
2022-10-23T02:26:42.411Z,2.05
2022-10-23T02:29:39.437Z,1.95
2022-10-23T02:32:09.208Z,2.42
2022-10-23T02:34:36.080Z,2.55
2022-10-23T02:37:02.922Z,2.55
2022-10-23T02:39:29.971Z,2.75
2022-10-23T02:42:01.075Z,2.08
2022-10-23T02:44:45.337Z,2.20
2022-10-23T02:47:11.681Z,2.00
2022-10-23T02:50:05.444Z,2.13
2022-10-23T02:53:04.019Z,2.05
2022-10-23T02:56:03.989Z,1.88
2022-10-23T02:58:42.487Z,1.80
2022-10-23T03:01:17.141Z,1.58
2022-10-23T03:03:55.196Z,2.05
2022-10-23T03:06:23.152Z,1.88
2022-10-23T03:09:03.862Z,2.22
2022-10-23T03:11:30.403Z,2.22
2022-10-23T03:13:56.849Z,2.20
2022-10-23T03:16:23.261Z,2.47
2022-10-23T03:18:49.714Z,2.00
2022-10-23T03:21:16.375Z,2.50
2022-10-23T03:23:42.855Z,2.30
2022-10-23T03:26:09.517Z,2.47
2022-10-23T03:28:35.992Z,2.28
2022-10-23T03:31:03.622Z,1.88
2022-10-23T03:33:31.166Z,1.60
2022-10-23T03:35:57.972Z,2.10
2022-10-23T03:38:24.427Z,1.92
2022-10-23T03:40:51.010Z,2.10
2022-10-23T03:43:17.435Z,1.98
2022-10-23T03:45:43.868Z,2.03
2022-10-23T03:48:10.738Z,2.38
2022-10-23T03:50:37.205Z,1.80
2022-10-23T03:53:03.708Z,2.25
2022-10-23T03:55:31.104Z,2.33
2022-10-23T03:57:57.515Z,2.30
2022-10-23T04:00:24.024Z,1.83
2022-10-23T04:02:50.655Z,2.22
2022-10-23T04:05:17.165Z,2.25
2022-10-23T04:07:43.607Z,1.98
2022-10-23T04:10:10.028Z,2.28
2022-10-23T04:12:36.425Z,2.00
2022-10-23T04:15:02.852Z,1.70
2022-10-23T04:17:29.292Z,2.42
2022-10-23T04:19:55.979Z,1.90
2022-10-23T04:22:24.781Z,1.55
2022-10-23T04:24:53.990Z,1.40
2022-10-23T04:27:20.473Z,1.65
2022-10-23T04:29:46.917Z,1.42
2022-10-23T04:32:13.349Z,1.30
2022-10-23T04:34:39.774Z,1.75
2022-10-23T04:37:06.189Z,2.15
2022-10-23T04:39:32.658Z,1.48
2022-10-23T04:41:59.091Z,1.70
2022-10-23T04:44:25.473Z,1.75
2022-10-23T04:46:51.868Z,1.65
2022-10-23T04:49:18.288Z,2.03
2022-10-23T04:51:44.749Z,1.90
2022-10-23T04:54:11.889Z,2.25
2022-10-23T04:56:38.404Z,2.13
2022-10-23T05:01:31.901Z,1.40
2022-10-23T05:03:58.490Z,1.40
2022-10-23T05:06:24.924Z,2.45
2022-10-23T05:08:51.343Z,2.30
2022-10-23T05:11:17.787Z,1.98
2022-10-23T05:13:44.336Z,2.45
2022-10-23T05:16:21.124Z,2.75
2022-10-23T05:18:48.170Z,2.83
2022-10-23T05:21:23.463Z,2.92
2022-10-23T05:23:50.767Z,1.95
2022-10-23T05:26:17.184Z,2.50
2022-10-23T05:28:43.690Z,2.47
2022-10-23T05:31:10.728Z,2.70
2022-10-23T05:33:37.548Z,2.47
2022-10-23T05:36:04.511Z,2.30
2022-10-23T05:38:33.551Z,2.70
2022-10-23T05:41:00.029Z,3.13
2022-10-23T05:43:27.331Z,2.92
2022-10-23T05:45:54.230Z,2.67
2022-10-23T05:48:34.381Z,2.78
2022-10-23T05:51:09.746Z,2.47
2022-10-23T05:53:38.868Z,2.22
2022-10-23T05:56:09.200Z,1.90
2022-10-23T05:58:35.703Z,2.45
2022-10-23T06:01:09.948Z,1.60
2022-10-23T06:03:37.797Z,2.22
2022-10-23T06:06:05.658Z,1.50
2022-10-23T06:08:33.264Z,1.73
2022-10-23T06:11:06.230Z,1.40
2022-10-23T06:13:32.651Z,1.50
2022-10-23T06:15:59.218Z,1.50
2022-10-23T06:18:25.660Z,1.50
2022-10-23T06:20:52.067Z,1.40
2022-10-23T06:23:18.464Z,1.40
2022-10-23T06:25:51.276Z,1.70
2022-10-23T06:28:20.510Z,1.63
2022-10-23T06:30:47.355Z,1.30
2022-10-23T06:33:13.792Z,1.70
2022-10-23T06:35:40.215Z,1.58
2022-10-23T06:38:06.781Z,1.40
2022-10-23T06:40:33.169Z,1.20
2022-10-23T06:42:59.616Z,1.70
2022-10-23T06:45:26.030Z,1.60
2022-10-23T06:47:52.733Z,1.52
2022-10-23T06:50:19.208Z,1.35
2022-10-23T06:52:47.348Z,1.52
2022-10-23T06:55:14.944Z,1.92
2022-10-23T06:57:41.923Z,1.80
2022-10-23T07:00:09.475Z,1.75
2022-10-23T07:02:36.298Z,2.75
2022-10-23T07:05:02.715Z,2.30
2022-10-23T07:07:32.347Z,1.70
2022-10-23T07:09:58.866Z,1.90
2022-10-23T07:12:25.329Z,1.92
2022-10-23T07:14:51.761Z,2.00
2022-10-23T07:17:18.253Z,1.60
2022-10-23T07:23:22.603Z,1.60
2022-10-23T07:25:49.076Z,1.73
2022-10-23T07:28:15.536Z,1.80
2022-10-23T07:30:42.940Z,2.13
2022-10-23T07:33:12.372Z,2.25
2022-10-23T07:35:40.841Z,2.38
2022-10-23T07:38:07.262Z,2.40
2022-10-23T07:40:33.719Z,2.30
2022-10-23T07:43:00.184Z,2.53
2022-10-23T07:45:26.645Z,2.17
2022-10-23T07:47:53.147Z,2.45
2022-10-23T07:50:19.717Z,2.58
2022-10-23T07:52:46.536Z,2.30
2022-10-23T07:55:13.854Z,2.00
2022-10-23T07:57:40.374Z,2.17
2022-10-23T08:00:07.422Z,1.85
2022-10-23T08:02:33.914Z,1.83
2022-10-23T08:05:00.421Z,2.10
2022-10-23T08:07:26.961Z,1.98
2022-10-23T08:09:53.517Z,2.30
2022-10-23T08:12:19.975Z,1.88
2022-10-23T08:14:46.415Z,1.98
2022-10-23T08:17:12.868Z,1.83
2022-10-23T08:19:39.396Z,1.58
2022-10-23T08:22:06.079Z,2.08
2022-10-23T08:24:32.523Z,1.40
2022-10-23T08:26:59.412Z,1.50
2022-10-23T08:29:25.830Z,1.25
2022-10-23T08:31:56.358Z,1.63
2022-10-23T08:34:23.666Z,1.55
2022-10-23T08:36:50.367Z,1.50
2022-10-23T08:39:16.808Z,1.30
2022-10-23T08:41:49.189Z,1.42
2022-10-23T08:44:30.914Z,1.23
2022-10-23T08:47:17.126Z,1.50
2022-10-23T08:49:50.538Z,1.42
2022-10-23T08:52:16.959Z,1.58
2022-10-23T08:54:57.081Z,1.60
2022-10-23T08:57:25.817Z,1.63
2022-10-23T09:00:00.301Z,1.55
2022-10-23T09:02:32.629Z,1.60
2022-10-23T09:04:59.530Z,1.83
2022-10-23T09:08:04.658Z,1.70
2022-10-23T09:10:51.623Z,1.48
2022-10-23T09:13:28.343Z,1.60
2022-10-23T09:16:18.643Z,1.77
2022-10-23T09:18:47.389Z,1.70
2022-10-23T09:21:14.114Z,1.85
2022-10-23T09:23:40.511Z,1.80
2022-10-23T09:26:14.451Z,1.27
2022-10-23T09:28:50.586Z,1.67
2022-10-23T09:31:18.825Z,1.23
2022-10-23T09:34:00.837Z,1.50
2022-10-23T09:36:29.276Z,1.20
2022-10-23T09:38:58.880Z,1.60
2022-10-23T09:41:36.252Z,1.50
2022-10-23T09:44:18.968Z,1.52
2022-10-23T09:46:54.235Z,1.38
2022-10-23T09:49:26.465Z,1.50
2022-10-23T09:52:03.697Z,1.05
2022-10-23T09:54:38.142Z,1.20
2022-10-23T09:57:31.171Z,1.25
2022-10-23T10:00:03.908Z,1.00
2022-10-23T10:02:36.210Z,1.45
2022-10-23T10:05:24.357Z,1.40
2022-10-23T10:08:22.577Z,1.80
2022-10-23T10:11:04.761Z,1.10
2022-10-23T10:13:34.012Z,1.20
2022-10-23T10:16:21.614Z,1.27
2022-10-23T10:19:14.155Z,1.13
2022-10-23T10:21:57.956Z,1.50
2022-10-23T10:24:29.869Z,1.15
2022-10-23T10:27:15.833Z,1.23
2022-10-23T10:29:56.724Z,1.30
2022-10-23T10:32:41.753Z,1.45
2022-10-23T10:35:23.770Z,1.60
2022-10-23T10:38:24.114Z,1.90
2022-10-23T10:41:09.035Z,1.63
2022-10-23T10:43:47.998Z,1.20
2022-10-23T10:46:32.547Z,1.65
2022-10-23T10:49:13.037Z,1.50
2022-10-23T10:52:09.786Z,1.88
2022-10-23T10:55:11.711Z,1.77
2022-10-23T10:57:45.954Z,1.67
2022-10-23T11:00:21.216Z,1.83
2022-10-23T11:03:00.522Z,1.90
2022-10-23T11:05:38.118Z,1.90
2022-10-23T11:08:13.740Z,1.98
2022-10-23T11:10:46.224Z,1.85
2022-10-23T11:13:28.918Z,2.15
2022-10-23T11:16:01.329Z,2.13
2022-10-23T11:18:30.886Z,2.30
2022-10-23T11:21:09.774Z,2.28
2022-10-23T11:24:13.387Z,2.15
2022-10-23T11:26:51.935Z,1.95
2022-10-23T11:29:27.508Z,2.33
2022-10-23T11:32:03.025Z,2.60
2022-10-23T11:35:02.565Z,1.80
2022-10-23T11:37:29.168Z,2.10
2022-10-23T11:40:07.575Z,1.70
2022-10-23T11:42:47.328Z,1.88
2022-10-23T11:45:30.671Z,1.90
2022-10-23T11:50:31.109Z,2.10
2022-10-23T11:53:15.804Z,1.80
2022-10-23T11:56:19.872Z,1.75
2022-10-23T11:58:50.560Z,1.80
2022-10-23T12:01:39.518Z,1.92
2022-10-23T12:04:14.916Z,2.20
2022-10-23T12:06:47.598Z,2.00
2022-10-23T12:09:46.256Z,1.48
2022-10-23T12:12:26.203Z,1.90
2022-10-23T12:14:52.705Z,1.63
2022-10-23T12:17:22.102Z,1.88
2022-10-23T12:20:01.999Z,1.60
2022-10-23T12:22:54.350Z,2.10
2022-10-23T12:25:43.511Z,2.40
2022-10-23T12:28:24.720Z,2.00
2022-10-23T12:31:05.164Z,1.80
2022-10-23T12:34:14.501Z,1.80
2022-10-23T12:36:51.290Z,1.90
2022-10-23T12:39:31.676Z,2.20
2022-10-23T12:42:00.352Z,1.70
2022-10-23T12:44:27.823Z,1.77
2022-10-23T12:47:00.763Z,1.52
2022-10-23T12:49:31.980Z,2.28
2022-10-23T12:52:14.018Z,2.08
2022-10-23T12:54:41.409Z,2.00
2022-10-23T12:57:20.978Z,1.95
2022-10-23T12:59:48.085Z,2.50
2022-10-23T13:02:23.827Z,2.15
2022-10-23T13:04:53.474Z,2.20
2022-10-23T13:07:24.575Z,2.13
2022-10-23T13:09:51.823Z,1.95
2022-10-23T13:12:30.750Z,2.47
2022-10-23T13:15:00.434Z,2.38
2022-10-23T13:17:42.247Z,2.85
2022-10-23T13:20:30.775Z,3.10
2022-10-23T13:23:00.639Z,2.22
2022-10-23T13:25:27.679Z,2.22
2022-10-23T13:28:19.022Z,2.20
2022-10-23T13:30:48.763Z,2.10
2022-10-23T13:33:21.384Z,3.03
2022-10-23T13:35:58.934Z,1.98
2022-10-23T13:38:33.340Z,1.92
2022-10-23T13:41:01.199Z,1.80
2022-10-23T13:43:30.647Z,1.95
2022-10-23T13:46:00.859Z,2.58
2022-10-23T13:48:28.213Z,2.47
2022-10-23T13:51:06.338Z,2.03
2022-10-23T13:53:33.113Z,2.60
2022-10-23T13:55:59.709Z,2.30
2022-10-23T13:58:26.114Z,2.67
2022-10-23T14:00:52.700Z,2.13
2022-10-23T14:03:20.320Z,2.08
2022-10-23T14:05:46.705Z,2.60
2022-10-23T14:08:13.118Z,2.67
2022-10-23T14:10:39.538Z,2.05
2022-10-23T14:13:06.191Z,2.17
2022-10-23T14:15:32.594Z,2.45
2022-10-23T14:18:00.180Z,2.47
2022-10-23T14:20:28.949Z,1.88
2022-10-23T14:22:55.436Z,2.15
2022-10-23T14:25:22.365Z,2.20
2022-10-23T14:27:49.197Z,2.08
2022-10-23T14:30:15.704Z,2.20
2022-10-23T14:32:42.532Z,2.40
2022-10-23T14:35:09.298Z,2.53
2022-10-23T14:37:35.777Z,2.85
2022-10-23T14:40:02.275Z,2.40
2022-10-23T14:42:34.084Z,2.67
2022-10-23T14:45:02.553Z,2.58
2022-10-23T14:47:28.998Z,2.22
2022-10-23T14:49:56.216Z,2.38
2022-10-23T14:52:23.605Z,2.70
2022-10-23T14:54:53.564Z,2.10
2022-10-23T14:57:22.098Z,2.50
2022-10-23T14:59:49.689Z,2.40
2022-10-23T15:02:16.842Z,2.55
2022-10-23T15:04:43.539Z,2.42
2022-10-23T15:07:09.996Z,2.22
2022-10-23T15:09:36.672Z,2.15
2022-10-23T15:12:04.507Z,2.50
2022-10-23T15:14:31.045Z,2.25
2022-10-23T15:16:57.514Z,2.25
2022-10-23T15:19:24.048Z,2.47
2022-10-23T15:21:50.542Z,2.30
2022-10-23T15:24:17.515Z,1.92
2022-10-23T15:26:44.502Z,2.50
2022-10-23T15:29:12.107Z,2.95
2022-10-23T15:31:38.576Z,2.40
2022-10-23T15:34:05.799Z,2.55
2022-10-23T15:36:33.079Z,3.22
2022-10-23T15:38:59.669Z,2.95
2022-10-23T15:41:31.386Z,2.50
2022-10-23T15:43:58.964Z,3.30
2022-10-23T15:46:25.530Z,3.33
2022-10-23T15:48:52.306Z,2.58
2022-10-23T15:51:18.763Z,2.65
2022-10-23T15:53:45.169Z,2.17
2022-10-23T15:56:11.560Z,2.38
2022-10-23T15:58:37.964Z,3.13
2022-10-23T16:01:06.524Z,2.60
2022-10-23T16:03:37.745Z,2.75
2022-10-23T16:06:09.432Z,2.70
2022-10-23T16:08:36.336Z,4.25
2022-10-23T16:11:03.528Z,3.47
2022-10-23T16:13:29.996Z,2.75
2022-10-23T16:15:56.431Z,2.15
2022-10-23T16:18:23.628Z,2.75
2022-10-23T16:20:55.466Z,2.60
2022-10-23T16:23:22.353Z,3.00
2022-10-23T16:25:48.794Z,2.80
2022-10-23T16:28:15.310Z,2.58
2022-10-23T16:30:42.984Z,2.95
2022-10-23T16:33:10.074Z,2.92
2022-10-23T16:35:37.093Z,2.45
2022-10-23T16:38:04.586Z,2.75
2022-10-23T16:40:31.219Z,2.35
2022-10-23T16:42:58.343Z,2.50
2022-10-23T16:45:24.918Z,2.67
2022-10-23T16:47:51.341Z,5.28
2022-10-23T16:50:17.885Z,2.70
2022-10-23T16:52:44.676Z,2.53
2022-10-23T16:55:11.352Z,2.67
2022-10-23T16:57:37.813Z,2.70
2022-10-23T17:00:05.209Z,2.25
2022-10-23T17:02:31.993Z,2.50
2022-10-23T17:04:58.568Z,2.30
2022-10-23T17:07:25.192Z,2.40
2022-10-23T17:09:51.659Z,2.72
2022-10-23T17:12:18.199Z,2.35
2022-10-23T17:14:44.629Z,3.03
2022-10-23T17:17:11.029Z,2.92
2022-10-23T17:19:45.460Z,2.88
2022-10-23T17:22:13.624Z,2.40
2022-10-23T17:24:40.996Z,2.40
2022-10-23T17:27:07.659Z,2.78
2022-10-23T17:29:34.196Z,2.20
2022-10-23T17:32:01.012Z,2.45
2022-10-23T17:34:27.526Z,2.65
2022-10-23T17:36:55.012Z,2.42
2022-10-23T17:39:26.742Z,3.17
2022-10-23T17:41:53.903Z,2.42
2022-10-23T17:44:21.215Z,2.40
2022-10-23T17:46:53.823Z,2.97
2022-10-23T17:49:21.703Z,2.65
2022-10-23T17:51:54.976Z,1.70
2022-10-23T17:54:22.468Z,1.73
2022-10-23T17:56:49.019Z,1.48
2022-10-23T17:59:17.497Z,1.85
2022-10-23T18:01:46.345Z,1.63
2022-10-23T18:04:12.976Z,2.55
2022-10-23T18:06:48.831Z,1.30
2022-10-23T18:09:15.657Z,1.50
2022-10-23T18:11:47.036Z,1.70
2022-10-23T18:14:15.683Z,1.07
2022-10-23T18:16:42.328Z,1.42
2022-10-23T18:19:09.251Z,1.15
2022-10-23T18:21:36.423Z,1.67
2022-10-23T18:24:03.216Z,0.80
2022-10-23T18:26:32.213Z,1.63
2022-10-23T18:28:59.608Z,1.30
2022-10-23T18:31:29.616Z,1.23
2022-10-23T18:34:01.663Z,1.30
2022-10-23T18:36:30.585Z,1.73
2022-10-23T18:38:57.163Z,1.70
2022-10-23T18:41:23.819Z,1.45
2022-10-23T18:43:54.545Z,0.73
2022-10-23T18:46:21.967Z,0.80
2022-10-23T18:48:50.770Z,1.48
2022-10-23T18:51:23.232Z,2.25
2022-10-23T18:53:50.389Z,1.05
2022-10-23T18:56:22.753Z,1.58
2022-10-23T18:58:53.310Z,0.88
2022-10-23T19:01:20.551Z,1.55
2022-10-23T19:03:47.844Z,1.30
2022-10-23T19:06:14.999Z,1.63
2022-10-23T19:08:43.905Z,1.75
2022-10-23T19:11:12.138Z,1.50
2022-10-23T19:13:39.590Z,1.50
2022-10-23T19:16:29.287Z,0.90
2022-10-23T19:19:00.025Z,0.88
2022-10-23T19:21:40.286Z,0.90
2022-10-23T19:24:33.597Z,1.25
2022-10-23T19:27:01.890Z,1.00
2022-10-23T19:29:29.514Z,1.10
2022-10-23T19:32:03.555Z,1.08
2022-10-23T19:34:29.988Z,0.80
2022-10-23T19:36:56.384Z,1.40
2022-10-23T19:39:38.717Z,0.80
2022-10-23T19:42:08.720Z,1.13
2022-10-23T19:44:38.236Z,0.95
2022-10-23T19:47:04.723Z,1.05
2022-10-23T19:49:31.179Z,0.70
2022-10-23T19:51:57.671Z,0.95
2022-10-23T19:54:24.749Z,0.70
2022-10-23T19:56:51.233Z,0.93
2022-10-23T19:59:18.332Z,1.15
2022-10-23T20:01:47.845Z,1.05
2022-10-23T20:04:15.272Z,1.60
2022-10-23T20:06:41.664Z,0.88
2022-10-23T20:09:09.786Z,1.40
2022-10-23T20:11:38.587Z,1.50
2022-10-23T20:14:06.072Z,1.70
2022-10-23T20:16:35.703Z,1.63
2022-10-23T20:19:06.975Z,1.50
2022-10-23T20:21:38.419Z,1.30
2022-10-23T20:24:05.245Z,2.28
2022-10-23T20:26:31.900Z,1.95
2022-10-23T20:28:58.353Z,1.50
2022-10-23T20:31:27.020Z,1.40
2022-10-23T20:33:54.319Z,1.85
2022-10-23T20:36:24.647Z,1.85
2022-10-23T20:38:51.729Z,1.75
2022-10-23T20:41:18.257Z,1.30
2022-10-23T20:43:44.695Z,1.80
2022-10-23T20:46:11.168Z,3.20
2022-10-23T20:48:39.779Z,1.42
2022-10-23T20:51:08.611Z,2.22
2022-10-23T20:53:36.160Z,2.30
2022-10-23T20:56:17.388Z,1.92
2022-10-23T20:58:44.280Z,1.58
2022-10-23T21:01:16.642Z,2.20
2022-10-23T21:03:43.940Z,1.70
2022-10-23T21:06:13.887Z,1.33
2022-10-23T21:08:40.981Z,1.77
2022-10-23T21:11:11.080Z,1.98
2022-10-23T21:13:37.525Z,1.77
2022-10-23T21:16:17.645Z,1.75
2022-10-23T21:18:46.373Z,1.92
2022-10-23T21:21:16.941Z,1.60
2022-10-23T21:23:43.401Z,2.03
2022-10-23T21:26:09.821Z,1.50
2022-10-23T21:28:36.337Z,2.45
2022-10-23T21:31:08.904Z,1.63
2022-10-23T21:33:36.789Z,2.22
2022-10-23T21:36:18.987Z,2.92
2022-10-23T21:38:47.133Z,1.80
2022-10-23T21:41:19.318Z,1.92
2022-10-23T21:43:46.125Z,2.00
2022-10-23T21:46:17.998Z,2.78
2022-10-23T21:48:44.935Z,2.13
2022-10-23T21:51:35.317Z,2.67
2022-10-23T21:54:02.043Z,2.28
2022-10-23T21:56:32.086Z,1.88
2022-10-23T21:59:00.858Z,2.10
2022-10-23T22:01:28.346Z,1.98
2022-10-23T22:03:55.728Z,2.38
2022-10-23T22:06:26.148Z,2.30
2022-10-23T22:08:54.047Z,2.00
2022-10-23T22:11:20.857Z,2.42
2022-10-23T22:13:47.395Z,3.15
2022-10-23T22:16:17.603Z,2.70
2022-10-23T22:18:44.662Z,2.50
2022-10-23T22:21:15.563Z,2.45
2022-10-23T22:23:42.820Z,3.00
2022-10-23T22:26:19.669Z,3.75
2022-10-23T22:28:46.069Z,3.13
2022-10-23T22:31:17.829Z,2.17
2022-10-23T22:33:44.775Z,2.42
2022-10-23T22:36:11.352Z,2.40
2022-10-23T22:38:38.800Z,2.78
2022-10-23T22:41:05.637Z,2.88
2022-10-23T22:43:32.036Z,1.98
2022-10-23T22:46:08.338Z,2.83
2022-10-23T22:48:35.795Z,2.28
2022-10-23T22:51:02.787Z,2.47
2022-10-23T22:53:29.819Z,2.25
2022-10-23T22:55:56.889Z,2.65
2022-10-23T22:58:24.612Z,2.22
2022-10-23T23:00:52.162Z,2.72
2022-10-23T23:03:18.614Z,8.18
2022-10-23T23:05:47.227Z,5.40
2022-10-23T23:08:14.819Z,2.97
2022-10-23T23:10:41.533Z,4.53
2022-10-23T23:13:08.211Z,2.83
2022-10-23T23:15:40.421Z,4.55
2022-10-23T23:18:06.894Z,3.70
2022-10-23T23:20:33.681Z,2.70
2022-10-23T23:23:00.089Z,2.78
2022-10-23T23:25:26.566Z,3.28
2022-10-23T23:27:52.984Z,2.60
2022-10-23T23:30:19.449Z,3.13
2022-10-23T23:32:48.102Z,2.97
2022-10-23T23:35:14.663Z,2.65
2022-10-23T23:37:41.070Z,2.63
2022-10-23T23:40:08.125Z,3.03
2022-10-23T23:42:34.588Z,4.60
2022-10-23T23:45:13.803Z,2.92
2022-10-23T23:47:41.467Z,2.95
2022-10-23T23:50:10.241Z,2.83
2022-10-23T23:52:36.660Z,3.35
2022-10-23T23:55:03.202Z,2.45
2022-10-23T23:57:29.650Z,3.90
2022-10-23T23:59:56.223Z,3.20
